Time;durP1;ratioP1;P1;durP2;ratioP2;P2;SDS_P1;SDS_P2;PMS_P1;PMS_P2;Temp;Humidity;BMP_temperature;BMP_pressure;BME280_temperature;BME280_humidity;BME280_pressure;Samples;Min_cycle;Max_cycle;Signal;HPM_P1;HPM_P2
2022/09/18 00:00:09;;;;;;;10.93;1.50;;;;;;;;;;5103367;28;20031;-82
2022/09/18 00:02:35;;;;;;;8.50;1.33;;;;;;;;;;5072829;28;20036;-81
2022/09/18 00:05:01;;;;;;;10.27;1.25;;;;;;;;;;5072917;28;20031;-82
2022/09/18 00:07:27;;;;;;;10.85;1.60;;;;;;;;;;5075331;28;20486;-82
2022/09/18 00:09:53;;;;;;;8.70;1.33;;;;;;;;;;5072864;28;20036;-82
2022/09/18 00:12:19;;;;;;;10.63;2.13;;;;;;;;;;5074352;28;20017;-82
2022/09/18 00:14:45;;;;;;;11.70;1.67;;;;;;;;;;5094098;28;20031;-82
2022/09/18 00:17:11;;;;;;;13.88;1.55;;;;;;;;;;5073025;28;20021;-82
2022/09/18 00:19:38;;;;;;;21.83;1.98;;;;;;;;;;5072322;28;20402;-82
2022/09/18 00:22:04;;;;;;;11.02;2.22;;;;;;;;;;5090586;28;20020;-82
2022/09/18 00:24:30;;;;;;;13.18;1.48;;;;;;;;;;5094316;28;20402;-82
2022/09/18 00:26:56;;;;;;;13.15;1.77;;;;;;;;;;5093969;28;20032;-82
2022/09/18 00:29:22;;;;;;;6.32;1.23;;;;;;;;;;5074790;28;20029;-82
2022/09/18 00:31:48;;;;;;;15.60;1.90;;;;;;;;;;5072388;28;20423;-82
2022/09/18 00:34:15;;;;;;;9.30;1.40;;;;;;;;;;5073231;28;20401;-82
2022/09/18 00:36:41;;;;;;;11.77;1.52;;;;;;;;;;5093728;28;20016;-82
2022/09/18 00:39:07;;;;;;;11.98;1.60;;;;;;;;;;5093675;28;20358;-82
2022/09/18 00:41:35;;;;;;;9.10;1.25;;;;;;;;;;5093522;28;20052;-82
2022/09/18 00:44:20;;;;;;;7.45;1.45;;;;;;;;;;5093894;28;20024;-82
2022/09/18 00:46:46;;;;;;;13.27;1.73;;;;;;;;;;5072383;28;20108;-81
2022/09/18 00:49:17;;;;;;;10.85;1.42;;;;;;;;;;5072335;28;20017;-82
2022/09/18 00:51:45;;;;;;;20.83;1.73;;;;;;;;;;5071729;28;20028;-82
2022/09/18 00:54:19;;;;;;;10.38;2.28;;;;;;;;;;5091128;28;20012;-82
2022/09/18 00:56:46;;;;;;;10.30;1.50;;;;;;;;;;5093528;28;20031;-82
2022/09/18 00:59:14;;;;;;;22.48;1.73;;;;;;;;;;5093563;28;20031;-81
2022/09/18 01:01:40;;;;;;;7.78;1.55;;;;;;;;;;5093497;28;20447;-82
2022/09/18 01:04:09;;;;;;;14.32;2.03;;;;;;;;;;5071586;28;20028;-82
2022/09/18 01:06:56;;;;;;;8.98;1.17;;;;;;;;;;5085396;28;20024;-82
2022/09/18 01:09:42;;;;;;;12.52;1.73;;;;;;;;;;5093099;28;20077;-82
2022/09/18 01:12:27;;;;;;;8.43;1.60;;;;;;;;;;5093828;28;20027;-82
2022/09/18 01:14:57;;;;;;;14.50;1.83;;;;;;;;;;5093057;28;20051;-82
2022/09/18 01:17:39;;;;;;;9.68;1.58;;;;;;;;;;5073892;28;20394;-82
2022/09/18 01:20:16;;;;;;;12.20;1.23;;;;;;;;;;5100255;28;20031;-82
2022/09/18 01:22:56;;;;;;;8.88;1.52;;;;;;;;;;5091640;28;20028;-82
2022/09/18 01:25:28;;;;;;;9.05;1.08;;;;;;;;;;5093770;28;20126;-81
2022/09/18 01:28:14;;;;;;;8.52;1.30;;;;;;;;;;5113808;28;20112;-81
2022/09/18 01:30:42;;;;;;;10.55;1.50;;;;;;;;;;5113721;28;20027;-81
2022/09/18 01:33:19;;;;;;;14.98;1.50;;;;;;;;;;5113151;28;20020;-81
2022/09/18 01:35:51;;;;;;;14.57;2.05;;;;;;;;;;5113509;28;20515;-81
2022/09/18 01:38:17;;;;;;;8.65;1.30;;;;;;;;;;5113080;28;20068;-81
2022/09/18 01:40:46;;;;;;;11.93;1.38;;;;;;;;;;5113351;28;20015;-81
2022/09/18 01:43:14;;;;;;;5.88;1.17;;;;;;;;;;5092380;28;20530;-81
2022/09/18 01:45:45;;;;;;;13.70;1.42;;;;;;;;;;5091703;28;20039;-82
2022/09/18 01:48:14;;;;;;;11.40;1.50;;;;;;;;;;5110364;28;20016;-82
2022/09/18 01:50:42;;;;;;;16.00;2.22;;;;;;;;;;5112869;28;20053;-82
2022/09/18 01:53:18;;;;;;;9.35;1.23;;;;;;;;;;5091635;28;20016;-81
2022/09/18 01:55:49;;;;;;;8.23;1.30;;;;;;;;;;5113159;28;20017;-81
2022/09/18 01:58:17;;;;;;;8.90;1.25;;;;;;;;;;5113062;28;20115;-82
2022/09/18 02:00:46;;;;;;;8.02;1.30;;;;;;;;;;5099660;28;20024;-82
2022/09/18 02:03:14;;;;;;;11.20;1.38;;;;;;;;;;5093027;28;20031;-82
2022/09/18 02:05:43;;;;;;;9.70;1.75;;;;;;;;;;5092336;28;20493;-81
2022/09/18 02:08:22;;;;;;;10.00;1.42;;;;;;;;;;5093037;28;20028;-82
2022/09/18 02:10:51;;;;;;;8.23;1.35;;;;;;;;;;5092231;28;20028;-82
2022/09/18 02:13:20;;;;;;;8.65;1.00;;;;;;;;;;5092496;28;20020;-82
2022/09/18 02:15:47;;;;;;;9.55;1.10;;;;;;;;;;5092306;28;20048;-82
2022/09/18 02:18:16;;;;;;;14.18;1.65;;;;;;;;;;5071805;28;20021;-82
2022/09/18 02:20:44;;;;;;;10.25;1.30;;;;;;;;;;5092442;28;20028;-82
2022/09/18 02:23:10;;;;;;;14.63;1.55;;;;;;;;;;5092308;28;20354;-82
2022/09/18 02:25:49;;;;;;;8.15;1.10;;;;;;;;;;5092373;28;20103;-82
2022/09/18 02:28:16;;;;;;;8.40;1.60;;;;;;;;;;5092567;28;20038;-82
2022/09/18 02:30:43;;;;;;;11.18;1.40;;;;;;;;;;5098035;28;20045;-82
2022/09/18 02:33:32;;;;;;;14.82;2.63;;;;;;;;;;5112700;28;20039;-82
2022/09/18 02:36:17;;;;;;;7.50;1.30;;;;;;;;;;5078420;28;20028;-82
2022/09/18 02:38:52;;;;;;;13.63;1.80;;;;;;;;;;5105657;28;20024;-81
2022/09/18 02:41:32;;;;;;;14.02;1.70;;;;;;;;;;5092415;28;20025;-81
2022/09/18 02:44:01;;;;;;;10.32;1.65;;;;;;;;;;5112573;28;20107;-82
2022/09/18 02:46:35;;;;;;;10.77;1.20;;;;;;;;;;5112594;28;20035;-82
2022/09/18 02:49:09;;;;;;;5.05;0.98;;;;;;;;;;5113790;28;20027;-82
2022/09/18 02:51:42;;;;;;;10.18;1.40;;;;;;;;;;5116681;28;20112;-81
2022/09/18 02:54:11;;;;;;;12.65;2.05;;;;;;;;;;5116323;28;20393;-80
2022/09/18 02:56:50;;;;;;;14.38;1.45;;;;;;;;;;5116368;28;20093;-80
2022/09/18 02:59:19;;;;;;;8.70;1.30;;;;;;;;;;5116094;28;20045;-80
2022/09/18 03:01:45;;;;;;;10.15;1.05;;;;;;;;;;5115927;28;20107;-81
2022/09/18 03:04:13;;;;;;;11.52;1.30;;;;;;;;;;5094783;28;20012;-81
2022/09/18 03:06:39;;;;;;;10.48;1.23;;;;;;;;;;5116300;28;20043;-81
2022/09/18 03:09:05;;;;;;;14.88;1.52;;;;;;;;;;5116004;28;20019;-81
2022/09/18 03:11:31;;;;;;;7.40;1.15;;;;;;;;;;5116045;28;20091;-81
2022/09/18 03:13:57;;;;;;;7.50;1.25;;;;;;;;;;5115760;28;20103;-81
2022/09/18 03:16:23;;;;;;;11.52;1.23;;;;;;;;;;5115695;28;20047;-81
2022/09/18 03:18:49;;;;;;;10.15;1.25;;;;;;;;;;5115780;28;20431;-81
2022/09/18 03:21:15;;;;;;;10.48;1.40;;;;;;;;;;5098521;28;20024;-81
2022/09/18 03:23:41;;;;;;;10.30;1.17;;;;;;;;;;5095171;28;20351;-81
2022/09/18 03:26:07;;;;;;;12.63;1.23;;;;;;;;;;5095397;28;20082;-81
2022/09/18 03:28:33;;;;;;;10.65;1.15;;;;;;;;;;5095347;28;20031;-80
2022/09/18 03:30:59;;;;;;;14.70;1.20;;;;;;;;;;5095311;28;20488;-81
2022/09/18 03:33:25;;;;;;;10.40;1.58;;;;;;;;;;5095101;28;20371;-81
2022/09/18 03:35:51;;;;;;;8.43;1.08;;;;;;;;;;5095276;28;20050;-81
2022/09/18 03:38:17;;;;;;;15.65;1.33;;;;;;;;;;5094859;28;20021;-81
2022/09/18 03:40:44;;;;;;;12.02;1.30;;;;;;;;;;5094910;28;20440;-81
2022/09/18 03:43:10;;;;;;;10.98;1.40;;;;;;;;;;5095085;28;20027;-82
2022/09/18 03:45:36;;;;;;;8.40;1.02;;;;;;;;;;5094851;28;20024;-81
2022/09/18 03:48:02;;;;;;;8.15;1.40;;;;;;;;;;5095330;28;20035;-81
2022/09/18 03:50:28;;;;;;;14.82;1.50;;;;;;;;;;5094696;28;20415;-81
2022/09/18 03:52:55;;;;;;;6.68;1.02;;;;;;;;;;5094758;28;20024;-81
2022/09/18 03:55:21;;;;;;;9.07;1.20;;;;;;;;;;5094570;28;20193;-81
2022/09/18 03:57:47;;;;;;;8.57;1.45;;;;;;;;;;5094555;28;20133;-81
2022/09/18 04:00:14;;;;;;;5.63;1.00;;;;;;;;;;5102861;28;20420;-81
2022/09/18 04:02:40;;;;;;;11.30;1.13;;;;;;;;;;5114928;28;20103;-81
2022/09/18 04:05:07;;;;;;;8.32;1.27;;;;;;;;;;5115050;28;20023;-81
2022/09/18 04:07:33;;;;;;;12.50;1.55;;;;;;;;;;5114709;28;20163;-81
2022/09/18 04:09:59;;;;;;;3.72;1.08;;;;;;;;;;5115290;28;20111;-81
2022/09/18 04:12:25;;;;;;;11.88;1.40;;;;;;;;;;5115048;28;20111;-81
2022/09/18 04:14:51;;;;;;;10.45;1.63;;;;;;;;;;5114390;28;20438;-81
2022/09/18 04:17:17;;;;;;;9.80;1.38;;;;;;;;;;5114639;28;20015;-81
2022/09/18 04:19:43;;;;;;;8.70;1.20;;;;;;;;;;5114648;28;20027;-81
2022/09/18 04:22:09;;;;;;;7.95;1.25;;;;;;;;;;5114483;28;20020;-81
2022/09/18 04:24:35;;;;;;;13.18;1.30;;;;;;;;;;5114888;28;20362;-80
2022/09/18 04:27:01;;;;;;;8.43;1.48;;;;;;;;;;5114749;28;20027;-81
2022/09/18 04:29:27;;;;;;;12.90;1.42;;;;;;;;;;5114179;28;20049;-81
2022/09/18 04:31:53;;;;;;;8.85;1.17;;;;;;;;;;5098407;28;20039;-82
2022/09/18 04:34:19;;;;;;;11.50;1.10;;;;;;;;;;5093845;28;20089;-82
2022/09/18 04:36:46;;;;;;;13.75;1.30;;;;;;;;;;5093927;28;20024;-81
2022/09/18 04:39:12;;;;;;;5.55;1.15;;;;;;;;;;5072766;28;20024;-81
2022/09/18 04:41:38;;;;;;;6.43;1.08;;;;;;;;;;5093542;28;20061;-81
2022/09/18 04:44:04;;;;;;;6.78;1.25;;;;;;;;;;5093697;28;20024;-81
2022/09/18 04:46:30;;;;;;;9.35;1.63;;;;;;;;;;5093541;28;20024;-81
2022/09/18 04:48:56;;;;;;;7.82;1.30;;;;;;;;;;5093558;28;20020;-81
2022/09/18 04:51:22;;;;;;;14.85;1.85;;;;;;;;;;5093361;28;20485;-81
2022/09/18 04:53:48;;;;;;;8.60;1.67;;;;;;;;;;5093629;28;20709;-81
2022/09/18 04:56:14;;;;;;;13.85;1.58;;;;;;;;;;5072956;28;20037;-81
2022/09/18 04:58:40;;;;;;;8.70;1.10;;;;;;;;;;5093364;28;20024;-80
2022/09/18 05:01:06;;;;;;;12.05;1.30;;;;;;;;;;5093343;28;20077;-81
2022/09/18 05:03:32;;;;;;;9.43;1.48;;;;;;;;;;5093632;28;20359;-81
2022/09/18 05:05:58;;;;;;;6.88;0.90;;;;;;;;;;5093128;28;20099;-81
2022/09/18 05:08:24;;;;;;;5.97;0.95;;;;;;;;;;5093064;28;20060;-81
2022/09/18 05:10:50;;;;;;;8.45;1.00;;;;;;;;;;5092684;28;20024;-80
2022/09/18 05:13:17;;;;;;;4.20;0.77;;;;;;;;;;5092833;28;20099;-81
2022/09/18 05:15:43;;;;;;;11.77;0.95;;;;;;;;;;5093063;28;20550;-80
2022/09/18 05:18:11;;;;;;;10.63;1.75;;;;;;;;;;5071678;28;20401;-80
2022/09/18 05:20:37;;;;;;;4.53;0.75;;;;;;;;;;5104656;28;20016;-80
2022/09/18 05:23:03;;;;;;;4.82;0.90;;;;;;;;;;5113586;28;20034;-80
2022/09/18 05:25:30;;;;;;;7.85;1.73;;;;;;;;;;5113866;28;20383;-80
2022/09/18 05:27:57;;;;;;;7.38;1.00;;;;;;;;;;5113518;28;20023;-80
2022/09/18 05:30:23;;;;;;;8.20;1.10;;;;;;;;;;5113072;28;20024;-80
2022/09/18 05:32:53;;;;;;;4.20;0.75;;;;;;;;;;5113503;28;20023;-80
2022/09/18 05:35:19;;;;;;;5.35;0.82;;;;;;;;;;5113162;28;20027;-80
2022/09/18 05:37:46;;;;;;;5.18;0.73;;;;;;;;;;5113134;28;20016;-80
2022/09/18 05:40:12;;;;;;;9.45;1.15;;;;;;;;;;5113285;28;20031;-80
2022/09/18 05:42:44;;;;;;;8.50;1.20;;;;;;;;;;5113003;28;20024;-80
2022/09/18 05:45:11;;;;;;;8.85;0.80;;;;;;;;;;5112801;28;20075;-80
2022/09/18 05:47:37;;;;;;;7.68;0.93;;;;;;;;;;5113005;28;20102;-80
2022/09/18 05:50:03;;;;;;;4.18;0.95;;;;;;;;;;5112914;28;20026;-80
2022/09/18 05:52:29;;;;;;;9.95;1.00;;;;;;;;;;5112868;28;20073;-80
2022/09/18 05:54:55;;;;;;;7.97;1.10;;;;;;;;;;5112946;28;20031;-80
2022/09/18 05:57:21;;;;;;;9.13;1.20;;;;;;;;;;5113032;28;20020;-80
2022/09/18 05:59:47;;;;;;;2.53;0.77;;;;;;;;;;5112599;28;20027;-80
2022/09/18 06:02:13;;;;;;;5.68;0.70;;;;;;;;;;5112660;28;20047;-81
2022/09/18 06:04:39;;;;;;;4.72;1.20;;;;;;;;;;5112988;28;20152;-81
2022/09/18 06:07:05;;;;;;;4.18;0.85;;;;;;;;;;5112705;28;20499;-81
2022/09/18 06:09:31;;;;;;;6.10;0.98;;;;;;;;;;5112575;28;20363;-81
2022/09/18 06:11:57;;;;;;;8.55;1.17;;;;;;;;;;5112749;28;20016;-81
2022/09/18 06:14:23;;;;;;;6.07;0.70;;;;;;;;;;5112889;28;20094;-81
2022/09/18 06:16:50;;;;;;;12.48;1.23;;;;;;;;;;5112496;28;20113;-81
2022/09/18 06:19:16;;;;;;;8.55;0.90;;;;;;;;;;5112524;28;20020;-81
2022/09/18 06:21:42;;;;;;;6.40;1.10;;;;;;;;;;5112983;28;20027;-81
2022/09/18 06:24:08;;;;;;;5.63;0.80;;;;;;;;;;5116156;28;20031;-81
2022/09/18 06:26:34;;;;;;;4.68;0.90;;;;;;;;;;5116619;28;20031;-80
2022/09/18 06:29:00;;;;;;;4.38;0.73;;;;;;;;;;5117125;28;20047;-80
2022/09/18 06:31:26;;;;;;;8.05;1.10;;;;;;;;;;5104324;28;20028;-80
2022/09/18 06:33:52;;;;;;;3.85;0.80;;;;;;;;;;5096243;28;20020;-80
2022/09/18 06:36:18;;;;;;;5.35;0.90;;;;;;;;;;5096282;28;20028;-80
2022/09/18 06:38:44;;;;;;;3.47;1.25;;;;;;;;;;5096047;28;20046;-80
2022/09/18 06:41:10;;;;;;;8.55;1.00;;;;;;;;;;5096283;28;20024;-80
2022/09/18 06:43:36;;;;;;;4.30;0.90;;;;;;;;;;5095976;28;20485;-80
2022/09/18 06:46:03;;;;;;;4.15;0.75;;;;;;;;;;5096099;28;20024;-80
2022/09/18 06:48:30;;;;;;;6.15;0.80;;;;;;;;;;5096122;28;20073;-80
2022/09/18 06:50:57;;;;;;;4.97;0.80;;;;;;;;;;5095947;28;20017;-80
2022/09/18 06:53:24;;;;;;;2.50;0.52;;;;;;;;;;5095599;28;20121;-80
2022/09/18 06:55:51;;;;;;;8.23;0.80;;;;;;;;;;5096206;28;20455;-80
2022/09/18 06:58:18;;;;;;;5.40;0.63;;;;;;;;;;5096190;28;20027;-80
2022/09/18 07:00:44;;;;;;;4.55;0.70;;;;;;;;;;5095639;28;20046;-80
2022/09/18 07:03:10;;;;;;;7.03;1.33;;;;;;;;;;5095759;28;20211;-80
2022/09/18 07:05:39;;;;;;;8.93;1.38;;;;;;;;;;5095806;28;20020;-80
2022/09/18 07:08:05;;;;;;;4.85;0.90;;;;;;;;;;5112125;28;20020;-81
2022/09/18 07:10:32;;;;;;;9.35;1.80;;;;;;;;;;5094455;28;20038;-80
2022/09/18 07:12:59;;;;;;;6.15;0.95;;;;;;;;;;5111174;28;20504;-80
2022/09/18 07:15:25;;;;;;;8.63;1.65;;;;;;;;;;5115759;28;20047;-80
2022/09/18 07:17:54;;;;;;;9.18;1.45;;;;;;;;;;5115777;28;20148;-80
2022/09/18 07:20:21;;;;;;;5.93;1.50;;;;;;;;;;5110617;28;20024;-80
2022/09/18 07:22:55;;;;;;;6.00;2.28;;;;;;;;;;5115482;28;20075;-80
2022/09/18 07:25:21;;;;;;;14.13;2.25;;;;;;;;;;5116176;28;20020;-80
2022/09/18 07:27:47;;;;;;;4.70;1.20;;;;;;;;;;5115982;28;20030;-80
2022/09/18 07:30:14;;;;;;;6.55;1.05;;;;;;;;;;5115708;28;20039;-80
2022/09/18 07:32:40;;;;;;;9.52;1.92;;;;;;;;;;5115453;28;20488;-80
2022/09/18 07:35:06;;;;;;;5.80;1.58;;;;;;;;;;5115369;28;20034;-80
2022/09/18 07:37:32;;;;;;;4.20;1.52;;;;;;;;;;5116051;28;20026;-80
2022/09/18 07:39:59;;;;;;;9.07;1.92;;;;;;;;;;5093809;28;20028;-80
2022/09/18 07:42:25;;;;;;;2.50;0.82;;;;;;;;;;5114323;28;20038;-80
2022/09/18 07:44:52;;;;;;;7.97;1.13;;;;;;;;;;5115367;28;20519;-80
2022/09/18 07:47:18;;;;;;;6.20;0.95;;;;;;;;;;5115853;28;20314;-80
2022/09/18 07:49:44;;;;;;;6.22;0.90;;;;;;;;;;5115311;28;20031;-80
2022/09/18 07:52:11;;;;;;;8.23;1.20;;;;;;;;;;5093747;28;20505;-80
2022/09/18 07:54:37;;;;;;;7.13;1.17;;;;;;;;;;5115109;28;20019;-80
2022/09/18 07:57:03;;;;;;;7.38;1.50;;;;;;;;;;5114827;28;20474;-80
2022/09/18 07:59:30;;;;;;;4.47;1.13;;;;;;;;;;5114860;28;20829;-80
2022/09/18 08:01:56;;;;;;;8.48;0.80;;;;;;;;;;5114772;28;20081;-80
2022/09/18 08:04:22;;;;;;;7.15;1.13;;;;;;;;;;5114722;28;20023;-80
2022/09/18 08:06:52;;;;;;;6.63;0.95;;;;;;;;;;5114609;28;20020;-80
2022/09/18 08:09:18;;;;;;;11.73;1.10;;;;;;;;;;5114690;28;20019;-80
2022/09/18 08:11:45;;;;;;;3.25;0.80;;;;;;;;;;5114604;28;20861;-79
2022/09/18 08:14:11;;;;;;;4.88;0.85;;;;;;;;;;5114653;28;20016;-79
2022/09/18 08:16:38;;;;;;;3.63;0.95;;;;;;;;;;5114522;28;20039;-80
2022/09/18 08:19:04;;;;;;;6.78;1.52;;;;;;;;;;5114613;28;20126;-80
2022/09/18 08:21:30;;;;;;;8.20;1.42;;;;;;;;;;5094425;28;20414;-80
2022/09/18 08:23:56;;;;;;;7.40;1.17;;;;;;;;;;5094553;28;20024;-80
2022/09/18 08:26:23;;;;;;;6.63;1.80;;;;;;;;;;5094677;28;20032;-80
2022/09/18 08:28:49;;;;;;;4.38;1.00;;;;;;;;;;5094244;28;20028;-80
2022/09/18 08:31:15;;;;;;;7.95;1.75;;;;;;;;;;5109468;28;20469;-81
2022/09/18 08:33:41;;;;;;;10.27;2.20;;;;;;;;;;5114344;28;20042;-80
2022/09/18 08:36:07;;;;;;;8.65;1.27;;;;;;;;;;5114335;28;20026;-80
2022/09/18 08:38:33;;;;;;;7.07;2.30;;;;;;;;;;5114277;28;20099;-80
2022/09/18 08:41:08;;;;;;;5.75;1.00;;;;;;;;;;5114174;28;20045;-80
2022/09/18 08:43:34;;;;;;;5.20;1.00;;;;;;;;;;5093915;28;20089;-80
2022/09/18 08:46:15;;;;;;;7.50;1.25;;;;;;;;;;5092820;28;20028;-80
2022/09/18 08:48:44;;;;;;;8.65;1.60;;;;;;;;;;5093949;28;20371;-80
2022/09/18 08:51:22;;;;;;;6.20;1.10;;;;;;;;;;5093558;28;20020;-80
2022/09/18 08:53:51;;;;;;;3.40;1.10;;;;;;;;;;5093642;28;20024;-79
2022/09/18 08:56:25;;;;;;;5.25;1.10;;;;;;;;;;5073772;28;20052;-85
2022/09/18 08:58:56;;;;;;;4.78;1.10;;;;;;;;;;5103299;28;20373;-87
2022/09/18 09:01:24;;;;;;;13.10;1.67;;;;;;;;;;5113941;28;20028;-88
2022/09/18 09:04:09;;;;;;;8.60;1.65;;;;;;;;;;5113957;28;20469;-87
2022/09/18 09:06:53;;;;;;;10.60;3.17;;;;;;;;;;5092527;28;20445;-87
2022/09/18 09:09:27;;;;;;;8.77;1.05;;;;;;;;;;5111760;28;20028;-87
2022/09/18 09:12:06;;;;;;;8.10;1.15;;;;;;;;;;5113827;28;20166;-87
2022/09/18 09:14:35;;;;;;;5.65;1.77;;;;;;;;;;5113560;28;20104;-87
2022/09/18 09:17:09;;;;;;;8.60;1.05;;;;;;;;;;5113772;28;20047;-87
2022/09/18 09:19:45;;;;;;;3.78;1.08;;;;;;;;;;5110492;28;20032;-87
2022/09/18 09:22:12;;;;;;;8.88;1.30;;;;;;;;;;5093412;28;20020;-86
2022/09/18 09:24:57;;;;;;;9.27;1.23;;;;;;;;;;5093452;28;20039;-86
2022/09/18 09:27:25;;;;;;;7.35;1.23;;;;;;;;;;5076081;28;20158;-87
2022/09/18 09:29:59;;;;;;;5.55;0.68;;;;;;;;;;5112852;28;20028;-86
2022/09/18 09:32:29;;;;;;;5.78;0.90;;;;;;;;;;5113441;28;20029;-88
2022/09/18 09:34:58;;;;;;;4.47;1.25;;;;;;;;;;5113387;28;20031;-88
2022/09/18 09:37:31;;;;;;;9.27;1.98;;;;;;;;;;5113254;28;20035;-88
2022/09/18 09:39:59;;;;;;;5.05;1.10;;;;;;;;;;5112215;28;20397;-88
2022/09/18 09:42:25;;;;;;;3.13;0.73;;;;;;;;;;5107317;28;20063;-88
2022/09/18 09:44:58;;;;;;;5.75;1.00;;;;;;;;;;5091670;28;20059;-89
2022/09/18 09:47:24;;;;;;;5.88;0.90;;;;;;;;;;5112062;28;20099;-89
2022/09/18 09:49:56;;;;;;;9.32;1.60;;;;;;;;;;5113104;28;20019;-88
2022/09/18 09:52:26;;;;;;;8.00;0.90;;;;;;;;;;5113313;28;20051;-89
2022/09/18 09:55:13;;;;;;;8.32;0.90;;;;;;;;;;5113198;28;20024;-89
2022/09/18 09:57:39;;;;;;;5.80;1.25;;;;;;;;;;5112685;28;20067;-89
2022/09/18 10:00:12;;;;;;;4.80;1.10;;;;;;;;;;5105032;28;20046;-88
2022/09/18 10:02:45;;;;;;;7.57;1.10;;;;;;;;;;5071038;28;20429;-89
2022/09/18 10:05:21;;;;;;;4.70;0.90;;;;;;;;;;5090225;28;20024;-88
2022/09/18 10:07:52;;;;;;;5.07;1.20;;;;;;;;;;5096615;28;20052;-88
2022/09/18 10:10:21;;;;;;;4.37;0.87;;;;;;;;;;5090361;28;20335;-88
2022/09/18 10:12:52;;;;;;;7.03;0.80;;;;;;;;;;5098937;28;20023;-89
2022/09/18 10:15:30;;;;;;;9.57;1.10;;;;;;;;;;5107020;28;20121;-88
2022/09/18 10:17:59;;;;;;;5.30;1.38;;;;;;;;;;5112711;28;20063;-87
2022/09/18 10:20:27;;;;;;;6.60;0.88;;;;;;;;;;5092757;28;20032;-88
2022/09/18 10:22:54;;;;;;;7.32;1.10;;;;;;;;;;5092519;28;20031;-88
2022/09/18 10:25:50;;;;;;;8.48;1.00;;;;;;;;;;5092961;28;20090;-87
2022/09/18 10:28:16;;;;;;;3.83;0.80;;;;;;;;;;5065112;28;20063;-85
2022/09/18 10:31:11;;;;;;;4.53;0.93;;;;;;;;;;5092414;28;20020;-88
2022/09/18 10:33:42;;;;;;;6.43;1.00;;;;;;;;;;5075147;28;20359;-86
2022/09/18 10:36:13;;;;;;;8.23;2.88;;;;;;;;;;5107647;28;20023;-86
2022/09/18 10:38:40;;;;;;;10.93;2.40;;;;;;;;;;5105380;28;20043;-85
2022/09/18 10:41:24;;;;;;;6.25;1.20;;;;;;;;;;5092151;28;20031;-86
2022/09/18 10:43:55;;;;;;;8.18;1.05;;;;;;;;;;5092443;28;20024;-86
2022/09/18 10:46:26;;;;;;;4.55;0.95;;;;;;;;;;5092220;28;20036;-85
2022/09/18 10:48:52;;;;;;;3.28;1.00;;;;;;;;;;5111201;28;20027;-86
2022/09/18 10:51:24;;;;;;;5.20;1.00;;;;;;;;;;5112407;28;20020;-85
2022/09/18 10:53:50;;;;;;;;;;;;;;;;;;5112862;28;20093;-86
2022/09/18 10:56:20;;;;;;;10.18;1.35;;;;;;;;;;5112219;28;20013;-86
2022/09/18 10:58:46;;;;;;;5.70;1.48;;;;;;;;;;5111227;28;20353;-86
2022/09/18 11:01:13;;;;;;;4.25;1.90;;;;;;;;;;5112359;28;20112;-86
2022/09/18 11:03:46;;;;;;;6.25;1.17;;;;;;;;;;5112442;28;20069;-86
2022/09/18 11:06:23;;;;;;;4.70;0.70;;;;;;;;;;5112265;28;20028;-85
2022/09/18 11:08:51;;;;;;;5.40;0.90;;;;;;;;;;5112317;28;20526;-85
2022/09/18 11:11:31;;;;;;;4.05;0.57;;;;;;;;;;5115667;28;20036;-85
2022/09/18 11:13:57;;;;;;;7.90;0.60;;;;;;;;;;5116232;28;20022;-84
2022/09/18 11:16:28;;;;;;;6.78;0.90;;;;;;;;;;5116122;28;20389;-86
2022/09/18 11:19:01;;;;;;;3.97;0.60;;;;;;;;;;5115772;28;20422;-82
2022/09/18 11:21:27;;;;;;;3.38;0.70;;;;;;;;;;5114313;28;20039;-82
2022/09/18 11:24:04;;;;;;;6.20;1.35;;;;;;;;;;5115892;28;20035;-83
2022/09/18 11:26:30;;;;;;;40.42;13.93;;;;;;;;;;5115569;28;20034;-82
2022/09/18 11:29:01;;;;;;;14.35;2.80;;;;;;;;;;5093712;28;20058;-83
2022/09/18 11:31:36;;;;;;;3.78;0.77;;;;;;;;;;5114650;28;20355;-82
2022/09/18 11:34:03;;;;;;;6.03;0.98;;;;;;;;;;5099523;28;20030;-82
2022/09/18 11:36:31;;;;;;;4.45;1.40;;;;;;;;;;5095046;28;20016;-82
2022/09/18 11:38:58;;;;;;;5.03;0.90;;;;;;;;;;5097823;28;20094;-82
2022/09/18 11:41:45;;;;;;;5.30;0.73;;;;;;;;;;5113955;28;20028;-82
2022/09/18 11:44:27;;;;;;;5.60;0.98;;;;;;;;;;5115425;28;20023;-81
2022/09/18 11:47:03;;;;;;;6.25;0.80;;;;;;;;;;5102148;28;20076;-82
2022/09/18 11:49:30;;;;;;;13.90;1.73;;;;;;;;;;5085417;28;20327;-80
2022/09/18 11:51:58;;;;;;;2.50;0.90;;;;;;;;;;5089738;28;20093;-79
2022/09/18 11:54:25;;;;;;;7.45;1.15;;;;;;;;;;5110912;28;20023;-79
2022/09/18 11:56:53;;;;;;;6.28;1.05;;;;;;;;;;5093436;28;20089;-79
2022/09/18 11:59:22;;;;;;;4.70;1.30;;;;;;;;;;5111519;28;20050;-79
2022/09/18 12:01:51;;;;;;;6.88;1.15;;;;;;;;;;5093974;28;20032;-79
2022/09/18 12:04:35;;;;;;;9.93;1.52;;;;;;;;;;5094361;28;20381;-79
2022/09/18 12:07:16;;;;;;;4.18;1.00;;;;;;;;;;5094641;28;20546;-79
2022/09/18 12:09:55;;;;;;;5.35;1.67;;;;;;;;;;5094471;28;20085;-79
2022/09/18 12:12:24;;;;;;;8.35;1.83;;;;;;;;;;5094172;28;20021;-79
2022/09/18 12:14:55;;;;;;;5.93;1.80;;;;;;;;;;5093881;28;20128;-79
2022/09/18 12:17:24;;;;;;;5.28;1.50;;;;;;;;;;5093971;28;20035;-78
2022/09/18 12:19:59;;;;;;;5.18;1.23;;;;;;;;;;5093978;28;20053;-79
2022/09/18 12:22:39;;;;;;;7.75;1.15;;;;;;;;;;5094090;28;20081;-79
2022/09/18 12:25:15;;;;;;;5.07;0.80;;;;;;;;;;5094325;28;20074;-79
2022/09/18 12:27:46;;;;;;;4.53;0.95;;;;;;;;;;5094169;28;20032;-79
2022/09/18 12:30:14;;;;;;;5.25;0.90;;;;;;;;;;5094248;28;20035;-79
2022/09/18 12:32:47;;;;;;;5.05;0.93;;;;;;;;;;5072849;28;20059;-79
2022/09/18 12:35:16;;;;;;;7.15;0.73;;;;;;;;;;5091128;28;20016;-79
2022/09/18 12:38:00;;;;;;;4.35;0.60;;;;;;;;;;5094225;28;20020;-79
2022/09/18 12:40:36;;;;;;;4.43;0.80;;;;;;;;;;5093960;28;20036;-79
2022/09/18 12:43:02;;;;;;;2.90;0.70;;;;;;;;;;5093843;28;20035;-79
2022/09/18 12:45:46;;;;;;;5.40;0.65;;;;;;;;;;5093623;28;20381;-79
2022/09/18 12:48:22;;;;;;;2.58;0.50;;;;;;;;;;5094011;28;20024;-79
2022/09/18 12:50:48;;;;;;;6.68;0.77;;;;;;;;;;5093603;28;20028;-79
2022/09/18 12:53:32;;;;;;;9.57;1.00;;;;;;;;;;5093556;28;20035;-79
2022/09/18 12:55:58;;;;;;;9.27;1.10;;;;;;;;;;5093800;28;20099;-79
2022/09/18 12:58:30;;;;;;;5.25;0.77;;;;;;;;;;5093713;28;20445;-78
2022/09/18 13:00:59;;;;;;;2.28;0.68;;;;;;;;;;5093609;28;20028;-79
2022/09/18 13:03:30;;;;;;;6.10;0.82;;;;;;;;;;5093500;28;20032;-79
2022/09/18 13:05:59;;;;;;;6.18;1.23;;;;;;;;;;5093219;28;20032;-79
2022/09/18 13:08:55;;;;;;;3.50;0.75;;;;;;;;;;5093271;28;20036;-79
2022/09/18 13:11:30;;;;;;;10.27;1.02;;;;;;;;;;5072038;28;20039;-79
2022/09/18 13:13:59;;;;;;;5.88;0.90;;;;;;;;;;5093438;28;20020;-79
2022/09/18 13:16:34;;;;;;;3.47;0.70;;;;;;;;;;5093150;28;20043;-79
2022/09/18 13:19:11;;;;;;;2.17;0.60;;;;;;;;;;5093518;28;20077;-79
2022/09/18 13:21:40;;;;;;;4.10;0.88;;;;;;;;;;5092854;28;20123;-79
2022/09/18 13:24:10;;;;;;;8.80;1.40;;;;;;;;;;5113070;28;20039;-79
2022/09/18 13:26:38;;;;;;;5.20;0.73;;;;;;;;;;5113269;28;20205;-79
2022/09/18 13:29:24;;;;;;;7.88;0.98;;;;;;;;;;5113166;28;20361;-79
2022/09/18 13:31:52;;;;;;;7.03;1.65;;;;;;;;;;5113317;28;20027;-79
2022/09/18 13:34:19;;;;;;;5.43;1.40;;;;;;;;;;5113004;28;20024;-79
2022/09/18 13:36:46;;;;;;;6.85;1.30;;;;;;;;;;5113425;28;20144;-79
2022/09/18 13:39:18;;;;;;;9.57;1.20;;;;;;;;;;5092083;28;20028;-79
2022/09/18 13:41:52;;;;;;;4.78;1.05;;;;;;;;;;5112987;28;20469;-79
2022/09/18 13:44:28;;;;;;;6.43;1.48;;;;;;;;;;5112912;28;20741;-79
2022/09/18 13:46:56;;;;;;;5.20;1.40;;;;;;;;;;5091393;28;20419;-79
2022/09/18 13:49:32;;;;;;;3.85;1.13;;;;;;;;;;5093008;28;20020;-79
2022/09/18 13:52:17;;;;;;;4.85;1.05;;;;;;;;;;5112981;28;20028;-79
2022/09/18 13:54:59;;;;;;;4.78;1.00;;;;;;;;;;5113281;28;20031;-79
2022/09/18 13:57:29;;;;;;;5.20;1.08;;;;;;;;;;5112799;28;20466;-79
2022/09/18 14:00:07;;;;;;;2.92;0.98;;;;;;;;;;5112616;28;20071;-79
2022/09/18 14:02:38;;;;;;;4.35;1.02;;;;;;;;;;5112710;28;20050;-79
2022/09/18 14:05:04;;;;;;;10.85;1.52;;;;;;;;;;5112694;28;20024;-79
2022/09/18 14:07:30;;;;;;;4.95;1.10;;;;;;;;;;5112727;28;20094;-79
2022/09/18 14:09:58;;;;;;;5.55;1.10;;;;;;;;;;5112546;28;20442;-79
2022/09/18 14:12:25;;;;;;;4.38;0.93;;;;;;;;;;5112614;28;20019;-79
2022/09/18 14:15:02;;;;;;;4.45;0.70;;;;;;;;;;5112659;28;20040;-79
2022/09/18 14:17:29;;;;;;;3.95;0.70;;;;;;;;;;5112288;28;20411;-78
2022/09/18 14:20:07;;;;;;;4.70;1.00;;;;;;;;;;5112391;28;20087;-79
2022/09/18 14:22:36;;;;;;;7.28;1.00;;;;;;;;;;5112361;28;20843;-78
2022/09/18 14:25:05;;;;;;;4.70;1.20;;;;;;;;;;5090860;28;20044;-78
2022/09/18 14:27:34;;;;;;;5.07;1.10;;;;;;;;;;5112656;28;20073;-79
2022/09/18 14:30:12;;;;;;;3.63;1.08;;;;;;;;;;5090801;28;20948;-79
2022/09/18 14:32:38;;;;;;;7.90;1.85;;;;;;;;;;5112238;28;20031;-79
2022/09/18 14:35:27;;;;;;;5.20;1.20;;;;;;;;;;5091203;28;20017;-79
2022/09/18 14:37:53;;;;;;;6.13;1.33;;;;;;;;;;5074574;28;20032;-79
2022/09/18 14:40:22;;;;;;;6.75;1.30;;;;;;;;;;5112341;28;20354;-79
2022/09/18 14:42:48;;;;;;;6.38;1.65;;;;;;;;;;5112154;28;20465;-79
2022/09/18 14:45:18;;;;;;;8.30;1.50;;;;;;;;;;5116027;28;20023;-79
2022/09/18 14:47:45;;;;;;;8.80;1.35;;;;;;;;;;5116401;28;20035;-79
2022/09/18 14:50:30;;;;;;;5.88;0.95;;;;;;;;;;5102495;28;20027;-79
2022/09/18 14:52:57;;;;;;;9.70;1.23;;;;;;;;;;5095680;28;20028;-79
2022/09/18 14:55:26;;;;;;;5.75;1.00;;;;;;;;;;5095564;28;20024;-79